MAPA DE AEROPUERTO

INFORMACIÓN METAR y TAF

METAR FOR LEMG
ADDS - METARS form results

(0437 UTC 10 August 2020)
Data provider http://aviationweather.gov/metar/data/
 
METAR text: LEMG 100430Z 31004KT CAVOK 23/13 Q1012 NOSIG
Conditions at: LEMG (MALAGA (CIV/MIL), ES) observed 0430 UTC 10 August 2020
Temperature: 23.0°C (73°F)
Dewpoint: 13.0°C (55°F) [RH = 53%]
Pressure (altimeter): 29.88 inches Hg (1012.0 mb)
Winds: from the NW (310 degrees) at 5 MPH (4 knots; 2.1 m/s)
Visibility: 6 or more miles (10+ km)
Ceiling: ceiling and visibility are OK
Clouds: unknown
Weather: no significant weather observed at this time

METAR text: LEMG 100400Z 31005KT CAVOK 23/14 Q1012 NOSIG
Conditions at: LEMG (MALAGA (CIV/MIL), ES) observed 0400 UTC 10 August 2020
Temperature: 23.0°C (73°F)
Dewpoint: 14.0°C (57°F) [RH = 57%]
Pressure (altimeter): 29.88 inches Hg (1012.0 mb)
Winds: from the NW (310 degrees) at 6 MPH (5 knots; 2.6 m/s)
Visibility: 6 or more miles (10+ km)
Ceiling: ceiling and visibility are OK
Clouds: unknown
Weather: no significant weather observed at this time

Forecast for: LEMG (MALAGA (CIV/MIL), ES)
Text: TAF LEMG 092300Z 1000/1024 VRB03KT CAVOK TX33/1016Z TN21/1001Z
Forecast period: 0000 to 1000 UTC 10 August 2020
Forecast type: FROM: standard forecast or significant change
Winds: variable direction winds at 3 MPH (3 knots; 1.5 m/s)
Visibility: 6 or more miles (10+ km)
Ceiling: unknown
Clouds: missing
Weather: no significant weather forecast for this period
Text: BECMG 1010/1012 14010KT
Forecast period: 1000 UTC 10 August 2020 to 0000 UTC 11 August 2020
Forecast type: BECOMING: Conditions expected to become as follows by 1200 UTC 10 August 2020
Winds: from the SE (140 degrees) at 12 MPH (10 knots; 5.1 m/s)
Visibility: 6 or more miles (10+ km)
Ceiling: unknown
Clouds: missing
Weather: no significant weather forecast for this period